sensor_id;sensor_type;location;lat;lon;timestamp;P1;durP1;ratioP1;P2;durP2;ratioP2
48613;SDS011;34408;51.426;5.444;2023-07-22T00:01:51;5.68;;;4.18;;
48613;SDS011;34408;51.426;5.444;2023-07-22T00:04:19;8.07;;;5.22;;
48613;SDS011;34408;51.426;5.444;2023-07-22T00:06:46;6.93;;;4.95;;
48613;SDS011;34408;51.426;5.444;2023-07-22T00:09:14;7.80;;;4.88;;
48613;SDS011;34408;51.426;5.444;2023-07-22T00:11:42;11.27;;;5.68;;
48613;SDS011;34408;51.426;5.444;2023-07-22T00:14:11;9.40;;;5.80;;
48613;SDS011;34408;51.426;5.444;2023-07-22T00:16:40;8.00;;;5.22;;
48613;SDS011;34408;51.426;5.444;2023-07-22T00:19:08;7.90;;;5.32;;
48613;SDS011;34408;51.426;5.444;2023-07-22T00:21:36;7.30;;;5.15;;
48613;SDS011;34408;51.426;5.444;2023-07-22T00:24:03;7.25;;;5.30;;
48613;SDS011;34408;51.426;5.444;2023-07-22T00:26:32;7.88;;;5.50;;
48613;SDS011;34408;51.426;5.444;2023-07-22T00:28:59;6.32;;;5.38;;
48613;SDS011;34408;51.426;5.444;2023-07-22T00:31:28;7.85;;;5.50;;
48613;SDS011;34408;51.426;5.444;2023-07-22T00:33:56;7.72;;;5.50;;
48613;SDS011;34408;51.426;5.444;2023-07-22T00:36:25;8.40;;;5.63;;
48613;SDS011;34408;51.426;5.444;2023-07-22T00:38:53;8.77;;;6.15;;
48613;SDS011;34408;51.426;5.444;2023-07-22T00:41:21;7.40;;;5.22;;
48613;SDS011;34408;51.426;5.444;2023-07-22T00:43:49;6.72;;;5.25;;
48613;SDS011;34408;51.426;5.444;2023-07-22T00:46:16;9.50;;;5.60;;
48613;SDS011;34408;51.426;5.444;2023-07-22T00:48:46;7.10;;;5.50;;
48613;SDS011;34408;51.426;5.444;2023-07-22T00:51:14;8.00;;;6.30;;
48613;SDS011;34408;51.426;5.444;2023-07-22T00:53:42;8.63;;;5.43;;
48613;SDS011;34408;51.426;5.444;2023-07-22T00:56:10;7.85;;;5.00;;
48613;SDS011;34408;51.426;5.444;2023-07-22T00:58:38;7.80;;;5.10;;
48613;SDS011;34408;51.426;5.444;2023-07-22T01:01:06;7.00;;;5.50;;
48613;SDS011;34408;51.426;5.444;2023-07-22T01:03:34;8.20;;;5.10;;
48613;SDS011;34408;51.426;5.444;2023-07-22T01:06:03;8.90;;;5.72;;
48613;SDS011;34408;51.426;5.444;2023-07-22T01:08:32;11.85;;;6.88;;
48613;SDS011;34408;51.426;5.444;2023-07-22T01:10:59;8.18;;;5.78;;
48613;SDS011;34408;51.426;5.444;2023-07-22T01:13:27;7.65;;;5.40;;
48613;SDS011;34408;51.426;5.444;2023-07-22T01:15:55;8.07;;;5.47;;
48613;SDS011;34408;51.426;5.444;2023-07-22T01:18:23;8.63;;;6.05;;
48613;SDS011;34408;51.426;5.444;2023-07-22T01:20:51;8.25;;;5.97;;
48613;SDS011;34408;51.426;5.444;2023-07-22T01:23:20;8.13;;;5.35;;
48613;SDS011;34408;51.426;5.444;2023-07-22T01:25:48;7.78;;;5.75;;
48613;SDS011;34408;51.426;5.444;2023-07-22T01:28:16;8.68;;;6.13;;
48613;SDS011;34408;51.426;5.444;2023-07-22T01:30:44;9.07;;;5.43;;
48613;SDS011;34408;51.426;5.444;2023-07-22T01:33:12;8.38;;;5.90;;
48613;SDS011;34408;51.426;5.444;2023-07-22T01:35:40;7.80;;;5.32;;
48613;SDS011;34408;51.426;5.444;2023-07-22T01:38:08;6.53;;;5.07;;
48613;SDS011;34408;51.426;5.444;2023-07-22T01:40:37;9.85;;;5.50;;
48613;SDS011;34408;51.426;5.444;2023-07-22T01:43:05;6.82;;;5.25;;
48613;SDS011;34408;51.426;5.444;2023-07-22T01:45:33;7.10;;;5.40;;
48613;SDS011;34408;51.426;5.444;2023-07-22T01:48:00;7.90;;;5.68;;
48613;SDS011;34408;51.426;5.444;2023-07-22T01:50:28;9.75;;;5.90;;
48613;SDS011;34408;51.426;5.444;2023-07-22T01:52:56;7.72;;;5.85;;
48613;SDS011;34408;51.426;5.444;2023-07-22T01:55:24;7.40;;;5.15;;
48613;SDS011;34408;51.426;5.444;2023-07-22T01:57:54;10.40;;;5.38;;
48613;SDS011;34408;51.426;5.444;2023-07-22T02:00:22;7.88;;;5.28;;
48613;SDS011;34408;51.426;5.444;2023-07-22T02:02:50;7.82;;;5.10;;
48613;SDS011;34408;51.426;5.444;2023-07-22T02:05:18;9.35;;;5.75;;
48613;SDS011;34408;51.426;5.444;2023-07-22T02:07:47;8.23;;;5.60;;
48613;SDS011;34408;51.426;5.444;2023-07-22T02:10:15;7.90;;;5.18;;
48613;SDS011;34408;51.426;5.444;2023-07-22T02:12:42;7.50;;;5.45;;
48613;SDS011;34408;51.426;5.444;2023-07-22T02:15:12;7.00;;;5.32;;
48613;SDS011;34408;51.426;5.444;2023-07-22T02:17:39;6.40;;;5.40;;
48613;SDS011;34408;51.426;5.444;2023-07-22T02:20:08;6.85;;;5.35;;
48613;SDS011;34408;51.426;5.444;2023-07-22T02:22:36;6.53;;;5.07;;
48613;SDS011;34408;51.426;5.444;2023-07-22T02:25:04;8.05;;;5.47;;
48613;SDS011;34408;51.426;5.444;2023-07-22T02:27:33;7.75;;;5.05;;
48613;SDS011;34408;51.426;5.444;2023-07-22T02:30:01;8.05;;;5.53;;
48613;SDS011;34408;51.426;5.444;2023-07-22T02:32:32;9.05;;;5.93;;
48613;SDS011;34408;51.426;5.444;2023-07-22T02:35:00;11.52;;;5.90;;
48613;SDS011;34408;51.426;5.444;2023-07-22T02:37:27;7.82;;;5.47;;
48613;SDS011;34408;51.426;5.444;2023-07-22T02:39:55;8.15;;;5.75;;
48613;SDS011;34408;51.426;5.444;2023-07-22T02:42:23;8.15;;;5.65;;
48613;SDS011;34408;51.426;5.444;2023-07-22T02:44:51;8.25;;;5.78;;
48613;SDS011;34408;51.426;5.444;2023-07-22T02:47:19;9.68;;;6.25;;
48613;SDS011;34408;51.426;5.444;2023-07-22T02:49:48;9.20;;;5.82;;
48613;SDS011;34408;51.426;5.444;2023-07-22T02:52:16;7.35;;;5.70;;
48613;SDS011;34408;51.426;5.444;2023-07-22T02:54:54;9.27;;;5.90;;
48613;SDS011;34408;51.426;5.444;2023-07-22T02:57:32;9.90;;;5.95;;
48613;SDS011;34408;51.426;5.444;2023-07-22T03:00:00;7.03;;;5.53;;
48613;SDS011;34408;51.426;5.444;2023-07-22T03:02:33;11.02;;;6.05;;
48613;SDS011;34408;51.426;5.444;2023-07-22T03:05:03;7.30;;;5.60;;
48613;SDS011;34408;51.426;5.444;2023-07-22T03:07:34;7.97;;;6.20;;
48613;SDS011;34408;51.426;5.444;2023-07-22T03:10:02;7.90;;;5.40;;
48613;SDS011;34408;51.426;5.444;2023-07-22T03:12:31;8.05;;;5.78;;
48613;SDS011;34408;51.426;5.444;2023-07-22T03:14:59;7.78;;;6.20;;
48613;SDS011;34408;51.426;5.444;2023-07-22T03:17:27;7.15;;;5.15;;
48613;SDS011;34408;51.426;5.444;2023-07-22T03:19:55;8.27;;;5.95;;
48613;SDS011;34408;51.426;5.444;2023-07-22T03:22:24;10.07;;;5.53;;
48613;SDS011;34408;51.426;5.444;2023-07-22T03:24:52;7.05;;;5.55;;
48613;SDS011;34408;51.426;5.444;2023-07-22T03:27:20;8.07;;;5.65;;
48613;SDS011;34408;51.426;5.444;2023-07-22T03:29:48;7.80;;;5.63;;
48613;SDS011;34408;51.426;5.444;2023-07-22T03:32:16;7.43;;;5.82;;
48613;SDS011;34408;51.426;5.444;2023-07-22T03:34:44;8.65;;;6.03;;
48613;SDS011;34408;51.426;5.444;2023-07-22T03:37:12;8.88;;;6.20;;
48613;SDS011;34408;51.426;5.444;2023-07-22T03:39:42;8.43;;;6.15;;
48613;SDS011;34408;51.426;5.444;2023-07-22T03:42:10;9.32;;;5.63;;
48613;SDS011;34408;51.426;5.444;2023-07-22T03:44:38;12.45;;;6.00;;
48613;SDS011;34408;51.426;5.444;2023-07-22T03:47:07;8.55;;;5.97;;
48613;SDS011;34408;51.426;5.444;2023-07-22T03:49:34;8.63;;;5.95;;
48613;SDS011;34408;51.426;5.444;2023-07-22T03:52:02;7.47;;;6.22;;
48613;SDS011;34408;51.426;5.444;2023-07-22T03:54:30;10.55;;;6.90;;
48613;SDS011;34408;51.426;5.444;2023-07-22T03:57:00;9.25;;;6.45;;
48613;SDS011;34408;51.426;5.444;2023-07-22T03:59:28;9.02;;;5.80;;
48613;SDS011;34408;51.426;5.444;2023-07-22T04:01:59;8.80;;;5.90;;
48613;SDS011;34408;51.426;5.444;2023-07-22T04:04:27;7.40;;;5.70;;
48613;SDS011;34408;51.426;5.444;2023-07-22T04:06:55;11.65;;;6.40;;
48613;SDS011;34408;51.426;5.444;2023-07-22T04:09:23;13.23;;;6.40;;
48613;SDS011;34408;51.426;5.444;2023-07-22T04:11:51;8.65;;;6.20;;
48613;SDS011;34408;51.426;5.444;2023-07-22T04:14:21;9.48;;;6.15;;
48613;SDS011;34408;51.426;5.444;2023-07-22T04:16:49;7.93;;;6.28;;
48613;SDS011;34408;51.426;5.444;2023-07-22T04:19:17;9.75;;;6.22;;
48613;SDS011;34408;51.426;5.444;2023-07-22T04:21:45;8.32;;;6.55;;
48613;SDS011;34408;51.426;5.444;2023-07-22T04:24:13;9.23;;;6.15;;
48613;SDS011;34408;51.426;5.444;2023-07-22T04:26:41;8.98;;;5.85;;
48613;SDS011;34408;51.426;5.444;2023-07-22T04:29:11;9.07;;;5.75;;
48613;SDS011;34408;51.426;5.444;2023-07-22T04:31:40;12.75;;;6.00;;
48613;SDS011;34408;51.426;5.444;2023-07-22T04:34:08;8.73;;;6.50;;
48613;SDS011;34408;51.426;5.444;2023-07-22T04:36:37;10.23;;;6.47;;
48613;SDS011;34408;51.426;5.444;2023-07-22T04:39:05;9.27;;;5.88;;
48613;SDS011;34408;51.426;5.444;2023-07-22T04:41:33;10.15;;;6.75;;
48613;SDS011;34408;51.426;5.444;2023-07-22T04:44:01;7.72;;;5.10;;
48613;SDS011;34408;51.426;5.444;2023-07-22T04:46:30;9.02;;;6.35;;
48613;SDS011;34408;51.426;5.444;2023-07-22T04:48:59;9.88;;;6.25;;
48613;SDS011;34408;51.426;5.444;2023-07-22T04:51:27;8.93;;;6.07;;
48613;SDS011;34408;51.426;5.444;2023-07-22T04:53:55;9.70;;;5.85;;
48613;SDS011;34408;51.426;5.444;2023-07-22T04:56:23;9.23;;;6.25;;
48613;SDS011;34408;51.426;5.444;2023-07-22T04:58:51;9.75;;;6.20;;
48613;SDS011;34408;51.426;5.444;2023-07-22T05:01:19;9.13;;;6.53;;
48613;SDS011;34408;51.426;5.444;2023-07-22T05:03:47;11.88;;;5.97;;
48613;SDS011;34408;51.426;5.444;2023-07-22T05:06:16;10.82;;;6.47;;
48613;SDS011;34408;51.426;5.444;2023-07-22T05:08:44;9.23;;;5.80;;
48613;SDS011;34408;51.426;5.444;2023-07-22T05:11:12;7.45;;;5.55;;
48613;SDS011;34408;51.426;5.444;2023-07-22T05:13:39;9.82;;;5.63;;
48613;SDS011;34408;51.426;5.444;2023-07-22T05:16:07;8.02;;;6.13;;
48613;SDS011;34408;51.426;5.444;2023-07-22T05:18:35;9.07;;;6.35;;
48613;SDS011;34408;51.426;5.444;2023-07-22T05:21:04;9.18;;;5.85;;
48613;SDS011;34408;51.426;5.444;2023-07-22T05:23:34;8.90;;;6.30;;
48613;SDS011;34408;51.426;5.444;2023-07-22T05:26:02;10.40;;;6.88;;
48613;SDS011;34408;51.426;5.444;2023-07-22T05:28:30;7.03;;;5.72;;
48613;SDS011;34408;51.426;5.444;2023-07-22T05:30:57;9.80;;;5.68;;
48613;SDS011;34408;51.426;5.444;2023-07-22T05:33:25;10.32;;;5.90;;
48613;SDS011;34408;51.426;5.444;2023-07-22T05:35:53;8.27;;;6.00;;
48613;SDS011;34408;51.426;5.444;2023-07-22T05:38:21;8.15;;;6.28;;
48613;SDS011;34408;51.426;5.444;2023-07-22T05:40:50;10.85;;;6.22;;
48613;SDS011;34408;51.426;5.444;2023-07-22T05:43:19;10.02;;;5.90;;
48613;SDS011;34408;51.426;5.444;2023-07-22T05:45:46;9.27;;;5.65;;
48613;SDS011;34408;51.426;5.444;2023-07-22T05:48:14;9.02;;;5.60;;
48613;SDS011;34408;51.426;5.444;2023-07-22T05:50:42;10.65;;;6.85;;
48613;SDS011;34408;51.426;5.444;2023-07-22T05:53:10;7.45;;;5.63;;
48613;SDS011;34408;51.426;5.444;2023-07-22T05:55:38;8.65;;;6.25;;
48613;SDS011;34408;51.426;5.444;2023-07-22T05:58:07;9.23;;;6.22;;
48613;SDS011;34408;51.426;5.444;2023-07-22T06:00:43;7.40;;;5.60;;
48613;SDS011;34408;51.426;5.444;2023-07-22T06:03:11;7.43;;;5.35;;
48613;SDS011;34408;51.426;5.444;2023-07-22T06:05:39;11.20;;;5.88;;
48613;SDS011;34408;51.426;5.444;2023-07-22T06:08:07;8.70;;;6.30;;
48613;SDS011;34408;51.426;5.444;2023-07-22T06:10:35;8.00;;;5.70;;
48613;SDS011;34408;51.426;5.444;2023-07-22T06:13:04;12.30;;;6.00;;
48613;SDS011;34408;51.426;5.444;2023-07-22T06:15:33;8.02;;;5.30;;
48613;SDS011;34408;51.426;5.444;2023-07-22T06:18:01;9.70;;;5.85;;
48613;SDS011;34408;51.426;5.444;2023-07-22T06:20:29;8.38;;;5.50;;
48613;SDS011;34408;51.426;5.444;2023-07-22T06:22:57;11.77;;;6.90;;
48613;SDS011;34408;51.426;5.444;2023-07-22T06:25:25;8.63;;;6.00;;
48613;SDS011;34408;51.426;5.444;2023-07-22T06:27:53;9.65;;;5.50;;
48613;SDS011;34408;51.426;5.444;2023-07-22T06:30:21;8.50;;;6.13;;
48613;SDS011;34408;51.426;5.444;2023-07-22T06:32:50;8.07;;;5.70;;
48613;SDS011;34408;51.426;5.444;2023-07-22T06:35:18;10.18;;;5.93;;
48613;SDS011;34408;51.426;5.444;2023-07-22T06:37:46;8.68;;;6.05;;
48613;SDS011;34408;51.426;5.444;2023-07-22T06:40:14;8.57;;;6.03;;
48613;SDS011;34408;51.426;5.444;2023-07-22T06:42:41;8.20;;;5.53;;
48613;SDS011;34408;51.426;5.444;2023-07-22T06:45:09;9.15;;;5.50;;
48613;SDS011;34408;51.426;5.444;2023-07-22T06:47:37;11.43;;;6.85;;
48613;SDS011;34408;51.426;5.444;2023-07-22T06:50:07;9.93;;;5.60;;
48613;SDS011;34408;51.426;5.444;2023-07-22T06:52:35;10.52;;;5.05;;
48613;SDS011;34408;51.426;5.444;2023-07-22T06:55:03;12.57;;;5.55;;
48613;SDS011;34408;51.426;5.444;2023-07-22T06:57:32;9.88;;;5.50;;
48613;SDS011;34408;51.426;5.444;2023-07-22T07:00:00;9.48;;;5.85;;
48613;SDS011;34408;51.426;5.444;2023-07-22T07:02:28;10.02;;;5.60;;
48613;SDS011;34408;51.426;5.444;2023-07-22T07:04:56;8.93;;;6.43;;
48613;SDS011;34408;51.426;5.444;2023-07-22T07:07:25;11.90;;;5.53;;
48613;SDS011;34408;51.426;5.444;2023-07-22T07:09:53;11.60;;;5.65;;
48613;SDS011;34408;51.426;5.444;2023-07-22T07:12:20;6.97;;;5.65;;
48613;SDS011;34408;51.426;5.444;2023-07-22T07:14:49;12.48;;;6.75;;
48613;SDS011;34408;51.426;5.444;2023-07-22T07:17:17;10.70;;;5.25;;
48613;SDS011;34408;51.426;5.444;2023-07-22T07:19:45;9.88;;;5.88;;
48613;SDS011;34408;51.426;5.444;2023-07-22T07:22:13;7.90;;;5.00;;
48613;SDS011;34408;51.426;5.444;2023-07-22T07:24:42;8.52;;;5.45;;
48613;SDS011;34408;51.426;5.444;2023-07-22T07:27:10;9.02;;;5.18;;
48613;SDS011;34408;51.426;5.444;2023-07-22T07:29:38;8.82;;;5.55;;
48613;SDS011;34408;51.426;5.444;2023-07-22T07:32:19;15.40;;;6.60;;
48613;SDS011;34408;51.426;5.444;2023-07-22T07:34:48;12.77;;;7.05;;
48613;SDS011;34408;51.426;5.444;2023-07-22T07:37:15;15.23;;;7.88;;
48613;SDS011;34408;51.426;5.444;2023-07-22T07:39:44;15.45;;;7.90;;
48613;SDS011;34408;51.426;5.444;2023-07-22T07:42:12;15.85;;;7.80;;
48613;SDS011;34408;51.426;5.444;2023-07-22T07:44:40;15.70;;;7.35;;
48613;SDS011;34408;51.426;5.444;2023-07-22T07:47:08;15.05;;;8.45;;
48613;SDS011;34408;51.426;5.444;2023-07-22T07:49:36;11.93;;;7.60;;
48613;SDS011;34408;51.426;5.444;2023-07-22T07:52:04;17.23;;;7.82;;
48613;SDS011;34408;51.426;5.444;2023-07-22T07:54:32;17.92;;;8.02;;
48613;SDS011;34408;51.426;5.444;2023-07-22T07:57:01;17.67;;;6.93;;
48613;SDS011;34408;51.426;5.444;2023-07-22T07:59:29;16.35;;;7.30;;
48613;SDS011;34408;51.426;5.444;2023-07-22T08:01:57;15.32;;;5.97;;
48613;SDS011;34408;51.426;5.444;2023-07-22T08:04:25;11.73;;;6.15;;
48613;SDS011;34408;51.426;5.444;2023-07-22T08:06:54;13.80;;;5.60;;
48613;SDS011;34408;51.426;5.444;2023-07-22T08:09:21;9.48;;;5.88;;
48613;SDS011;34408;51.426;5.444;2023-07-22T08:11:49;9.10;;;5.95;;
48613;SDS011;34408;51.426;5.444;2023-07-22T08:14:18;9.20;;;5.18;;
48613;SDS011;34408;51.426;5.444;2023-07-22T08:16:46;10.60;;;5.90;;
48613;SDS011;34408;51.426;5.444;2023-07-22T08:19:14;10.43;;;4.65;;
48613;SDS011;34408;51.426;5.444;2023-07-22T08:21:42;9.13;;;4.93;;
48613;SDS011;34408;51.426;5.444;2023-07-22T08:24:09;12.50;;;5.40;;
48613;SDS011;34408;51.426;5.444;2023-07-22T08:26:37;10.10;;;5.15;;
48613;SDS011;34408;51.426;5.444;2023-07-22T08:29:05;9.85;;;4.85;;
48613;SDS011;34408;51.426;5.444;2023-07-22T08:31:34;8.45;;;4.75;;
48613;SDS011;34408;51.426;5.444;2023-07-22T08:34:02;10.70;;;4.22;;
48613;SDS011;34408;51.426;5.444;2023-07-22T08:36:30;9.43;;;5.18;;
48613;SDS011;34408;51.426;5.444;2023-07-22T08:38:58;9.88;;;4.47;;
48613;SDS011;34408;51.426;5.444;2023-07-22T08:41:25;8.43;;;4.82;;
48613;SDS011;34408;51.426;5.444;2023-07-22T08:43:55;11.02;;;4.00;;
48613;SDS011;34408;51.426;5.444;2023-07-22T08:46:27;6.68;;;3.95;;
48613;SDS011;34408;51.426;5.444;2023-07-22T08:48:58;7.57;;;4.55;;
48613;SDS011;34408;51.426;5.444;2023-07-22T08:51:27;7.80;;;4.65;;
48613;SDS011;34408;51.426;5.444;2023-07-22T08:53:56;8.38;;;4.18;;
48613;SDS011;34408;51.426;5.444;2023-07-22T08:56:37;8.57;;;4.18;;
48613;SDS011;34408;51.426;5.444;2023-07-22T08:59:05;8.00;;;4.18;;
48613;SDS011;34408;51.426;5.444;2023-07-22T09:01:33;6.80;;;3.88;;
48613;SDS011;34408;51.426;5.444;2023-07-22T09:04:04;6.75;;;3.88;;
48613;SDS011;34408;51.426;5.444;2023-07-22T09:06:32;5.38;;;3.88;;
48613;SDS011;34408;51.426;5.444;2023-07-22T09:09:01;7.60;;;4.25;;
48613;SDS011;34408;51.426;5.444;2023-07-22T09:11:33;7.38;;;3.85;;
48613;SDS011;34408;51.426;5.444;2023-07-22T09:14:02;7.38;;;3.78;;
48613;SDS011;34408;51.426;5.444;2023-07-22T09:16:30;8.93;;;4.40;;
48613;SDS011;34408;51.426;5.444;2023-07-22T09:18:59;6.70;;;4.00;;
48613;SDS011;34408;51.426;5.444;2023-07-22T09:21:29;8.98;;;3.70;;
48613;SDS011;34408;51.426;5.444;2023-07-22T09:23:57;6.65;;;4.03;;
48613;SDS011;34408;51.426;5.444;2023-07-22T09:26:24;9.68;;;4.10;;
48613;SDS011;34408;51.426;5.444;2023-07-22T09:28:53;8.43;;;4.30;;
48613;SDS011;34408;51.426;5.444;2023-07-22T09:31:23;6.97;;;3.92;;
48613;SDS011;34408;51.426;5.444;2023-07-22T09:33:52;7.28;;;4.22;;
48613;SDS011;34408;51.426;5.444;2023-07-22T09:36:21;7.40;;;3.65;;
48613;SDS011;34408;51.426;5.444;2023-07-22T09:38:59;8.68;;;4.03;;
48613;SDS011;34408;51.426;5.444;2023-07-22T09:41:30;7.47;;;3.85;;
48613;SDS011;34408;51.426;5.444;2023-07-22T09:44:01;5.65;;;3.88;;
48613;SDS011;34408;51.426;5.444;2023-07-22T09:46:30;6.03;;;3.65;;
48613;SDS011;34408;51.426;5.444;2023-07-22T09:49:02;5.68;;;3.72;;
48613;SDS011;34408;51.426;5.444;2023-07-22T09:51:33;5.47;;;3.40;;
48613;SDS011;34408;51.426;5.444;2023-07-22T09:54:07;5.22;;;3.35;;
48613;SDS011;34408;51.426;5.444;2023-07-22T09:56:43;6.72;;;3.67;;
48613;SDS011;34408;51.426;5.444;2023-07-22T09:59:11;7.88;;;3.38;;
48613;SDS011;34408;51.426;5.444;2023-07-22T10:01:40;6.15;;;3.50;;
48613;SDS011;34408;51.426;5.444;2023-07-22T10:04:08;6.53;;;3.15;;
48613;SDS011;34408;51.426;5.444;2023-07-22T10:06:37;6.53;;;2.97;;
48613;SDS011;34408;51.426;5.444;2023-07-22T10:09:08;6.25;;;2.90;;
48613;SDS011;34408;51.426;5.444;2023-07-22T10:11:38;4.20;;;2.47;;
48613;SDS011;34408;51.426;5.444;2023-07-22T10:14:06;6.32;;;3.70;;
48613;SDS011;34408;51.426;5.444;2023-07-22T10:16:34;6.28;;;2.90;;
48613;SDS011;34408;51.426;5.444;2023-07-22T10:19:04;6.30;;;3.05;;
48613;SDS011;34408;51.426;5.444;2023-07-22T10:21:33;4.57;;;2.60;;
48613;SDS011;34408;51.426;5.444;2023-07-22T10:24:02;4.78;;;2.83;;
48613;SDS011;34408;51.426;5.444;2023-07-22T10:26:31;5.05;;;2.70;;
48613;SDS011;34408;51.426;5.444;2023-07-22T10:29:12;5.53;;;2.45;;
48613;SDS011;34408;51.426;5.444;2023-07-22T10:31:41;3.45;;;2.47;;
48613;SDS011;34408;51.426;5.444;2023-07-22T10:34:09;7.13;;;3.50;;
48613;SDS011;34408;51.426;5.444;2023-07-22T10:36:37;5.45;;;2.92;;
48613;SDS011;34408;51.426;5.444;2023-07-22T10:39:05;5.47;;;3.17;;
48613;SDS011;34408;51.426;5.444;2023-07-22T10:41:35;6.50;;;3.35;;
48613;SDS011;34408;51.426;5.444;2023-07-22T10:44:06;6.88;;;2.88;;
48613;SDS011;34408;51.426;5.444;2023-07-22T10:46:38;4.63;;;2.58;;
48613;SDS011;34408;51.426;5.444;2023-07-22T10:49:10;4.10;;;2.58;;
48613;SDS011;34408;51.426;5.444;2023-07-22T10:51:39;7.63;;;3.20;;
48613;SDS011;34408;51.426;5.444;2023-07-22T10:54:11;5.03;;;2.78;;
48613;SDS011;34408;51.426;5.444;2023-07-22T10:56:42;7.22;;;2.63;;
48613;SDS011;34408;51.426;5.444;2023-07-22T10:59:10;6.38;;;2.30;;
48613;SDS011;34408;51.426;5.444;2023-07-22T11:01:39;3.88;;;2.55;;
48613;SDS011;34408;51.426;5.444;2023-07-22T11:04:14;4.47;;;2.40;;
48613;SDS011;34408;51.426;5.444;2023-07-22T11:09:36;4.40;;;2.20;;
48613;SDS011;34408;51.426;5.444;2023-07-22T11:12:11;3.38;;;2.22;;
48613;SDS011;34408;51.426;5.444;2023-07-22T11:14:45;3.80;;;2.75;;
48613;SDS011;34408;51.426;5.444;2023-07-22T11:17:15;3.50;;;1.80;;
48613;SDS011;34408;51.426;5.444;2023-07-22T11:19:44;5.50;;;2.60;;
48613;SDS011;34408;51.426;5.444;2023-07-22T11:22:12;5.05;;;1.95;;
48613;SDS011;34408;51.426;5.444;2023-07-22T11:24:40;4.50;;;2.28;;
48613;SDS011;34408;51.426;5.444;2023-07-22T11:27:10;8.65;;;2.85;;
48613;SDS011;34408;51.426;5.444;2023-07-22T11:29:37;5.13;;;1.90;;
48613;SDS011;34408;51.426;5.444;2023-07-22T11:32:06;4.88;;;2.17;;
48613;SDS011;34408;51.426;5.444;2023-07-22T11:34:41;3.30;;;2.20;;
48613;SDS011;34408;51.426;5.444;2023-07-22T11:37:10;5.25;;;2.25;;
48613;SDS011;34408;51.426;5.444;2023-07-22T11:39:39;3.60;;;1.95;;
48613;SDS011;34408;51.426;5.444;2023-07-22T11:42:08;4.30;;;2.33;;
48613;SDS011;34408;51.426;5.444;2023-07-22T11:44:37;5.65;;;2.10;;
48613;SDS011;34408;51.426;5.444;2023-07-22T11:47:06;4.47;;;1.90;;
48613;SDS011;34408;51.426;5.444;2023-07-22T11:49:35;4.30;;;2.40;;
48613;SDS011;34408;51.426;5.444;2023-07-22T11:52:04;3.60;;;1.85;;
48613;SDS011;34408;51.426;5.444;2023-07-22T11:54:35;5.25;;;2.25;;
48613;SDS011;34408;51.426;5.444;2023-07-22T11:57:12;4.05;;;2.03;;
48613;SDS011;34408;51.426;5.444;2023-07-22T11:59:43;3.40;;;2.00;;
48613;SDS011;34408;51.426;5.444;2023-07-22T12:02:12;3.08;;;2.05;;
48613;SDS011;34408;51.426;5.444;2023-07-22T12:04:40;3.65;;;1.98;;
48613;SDS011;34408;51.426;5.444;2023-07-22T12:07:20;3.60;;;1.80;;
48613;SDS011;34408;51.426;5.444;2023-07-22T12:09:49;3.42;;;1.92;;
48613;SDS011;34408;51.426;5.444;2023-07-22T12:12:18;6.75;;;2.15;;
48613;SDS011;34408;51.426;5.444;2023-07-22T12:14:46;3.92;;;1.80;;
48613;SDS011;34408;51.426;5.444;2023-07-22T12:17:14;6.32;;;2.28;;
48613;SDS011;34408;51.426;5.444;2023-07-22T12:19:50;5.25;;;2.40;;
48613;SDS011;34408;51.426;5.444;2023-07-22T12:22:18;4.28;;;2.40;;
48613;SDS011;34408;51.426;5.444;2023-07-22T12:24:46;4.97;;;2.13;;
48613;SDS011;34408;51.426;5.444;2023-07-22T12:27:14;4.65;;;2.05;;
48613;SDS011;34408;51.426;5.444;2023-07-22T12:29:44;4.03;;;1.77;;
48613;SDS011;34408;51.426;5.444;2023-07-22T12:32:11;3.03;;;1.80;;
48613;SDS011;34408;51.426;5.444;2023-07-22T12:34:39;3.35;;;2.10;;
48613;SDS011;34408;51.426;5.444;2023-07-22T12:37:07;2.88;;;2.03;;
48613;SDS011;34408;51.426;5.444;2023-07-22T12:39:35;3.20;;;1.75;;
48613;SDS011;34408;51.426;5.444;2023-07-22T12:42:03;3.00;;;1.80;;
48613;SDS011;34408;51.426;5.444;2023-07-22T12:44:31;2.83;;;1.85;;
48613;SDS011;34408;51.426;5.444;2023-07-22T12:47:00;4.20;;;1.67;;
48613;SDS011;34408;51.426;5.444;2023-07-22T12:49:28;5.97;;;2.20;;
48613;SDS011;34408;51.426;5.444;2023-07-22T12:51:56;4.60;;;1.90;;
48613;SDS011;34408;51.426;5.444;2023-07-22T12:54:29;4.28;;;2.30;;
48613;SDS011;34408;51.426;5.444;2023-07-22T12:56:58;2.65;;;1.52;;
48613;SDS011;34408;51.426;5.444;2023-07-22T12:59:25;2.88;;;1.60;;
48613;SDS011;34408;51.426;5.444;2023-07-22T13:01:53;4.55;;;1.98;;
48613;SDS011;34408;51.426;5.444;2023-07-22T13:04:22;2.25;;;1.63;;
48613;SDS011;34408;51.426;5.444;2023-07-22T13:06:50;2.72;;;1.55;;
48613;SDS011;34408;51.426;5.444;2023-07-22T13:09:18;4.15;;;1.77;;
48613;SDS011;34408;51.426;5.444;2023-07-22T13:11:46;3.15;;;1.88;;
48613;SDS011;34408;51.426;5.444;2023-07-22T13:14:14;2.47;;;1.50;;
48613;SDS011;34408;51.426;5.444;2023-07-22T13:16:44;3.38;;;1.63;;
48613;SDS011;34408;51.426;5.444;2023-07-22T13:19:12;2.83;;;1.60;;
48613;SDS011;34408;51.426;5.444;2023-07-22T13:21:41;2.53;;;1.77;;
48613;SDS011;34408;51.426;5.444;2023-07-22T13:24:09;4.78;;;1.85;;
48613;SDS011;34408;51.426;5.444;2023-07-22T13:26:37;4.40;;;1.52;;
48613;SDS011;34408;51.426;5.444;2023-07-22T13:29:06;4.65;;;1.90;;
48613;SDS011;34408;51.426;5.444;2023-07-22T13:31:35;4.30;;;1.70;;
48613;SDS011;34408;51.426;5.444;2023-07-22T13:34:03;5.00;;;2.05;;
48613;SDS011;34408;51.426;5.444;2023-07-22T13:36:31;2.05;;;1.40;;
48613;SDS011;34408;51.426;5.444;2023-07-22T13:39:00;3.50;;;1.40;;
48613;SDS011;34408;51.426;5.444;2023-07-22T13:41:28;4.03;;;1.50;;
48613;SDS011;34408;51.426;5.444;2023-07-22T13:43:56;2.28;;;1.58;;
48613;SDS011;34408;51.426;5.444;2023-07-22T13:46:24;19.25;;;3.50;;
48613;SDS011;34408;51.426;5.444;2023-07-22T13:48:52;9.15;;;2.10;;
48613;SDS011;34408;51.426;5.444;2023-07-22T13:51:20;3.83;;;1.80;;
48613;SDS011;34408;51.426;5.444;2023-07-22T13:53:48;9.95;;;2.10;;
48613;SDS011;34408;51.426;5.444;2023-07-22T13:56:17;3.55;;;1.60;;
48613;SDS011;34408;51.426;5.444;2023-07-22T13:58:44;7.70;;;1.80;;
48613;SDS011;34408;51.426;5.444;2023-07-22T14:01:12;4.50;;;1.80;;
48613;SDS011;34408;51.426;5.444;2023-07-22T14:03:40;3.25;;;1.60;;
48613;SDS011;34408;51.426;5.444;2023-07-22T14:06:08;5.30;;;1.83;;
48613;SDS011;34408;51.426;5.444;2023-07-22T14:08:36;5.95;;;1.70;;
48613;SDS011;34408;51.426;5.444;2023-07-22T14:11:05;5.47;;;1.92;;
48613;SDS011;34408;51.426;5.444;2023-07-22T14:13:34;5.90;;;1.80;;
48613;SDS011;34408;51.426;5.444;2023-07-22T14:16:02;4.45;;;1.60;;
48613;SDS011;34408;51.426;5.444;2023-07-22T14:18:47;5.07;;;2.08;;
48613;SDS011;34408;51.426;5.444;2023-07-22T14:21:15;5.20;;;1.67;;
48613;SDS011;34408;51.426;5.444;2023-07-22T14:23:43;5.07;;;1.65;;
48613;SDS011;34408;51.426;5.444;2023-07-22T14:26:11;10.63;;;2.00;;
48613;SDS011;34408;51.426;5.444;2023-07-22T14:28:40;6.85;;;2.38;;
48613;SDS011;34408;51.426;5.444;2023-07-22T14:31:08;6.30;;;2.35;;
48613;SDS011;34408;51.426;5.444;2023-07-22T14:33:36;4.00;;;1.80;;
48613;SDS011;34408;51.426;5.444;2023-07-22T14:36:03;4.45;;;2.00;;
48613;SDS011;34408;51.426;5.444;2023-07-22T14:38:31;4.38;;;2.10;;
48613;SDS011;34408;51.426;5.444;2023-07-22T14:40:59;5.43;;;1.80;;
48613;SDS011;34408;51.426;5.444;2023-07-22T14:43:27;6.15;;;2.20;;
48613;SDS011;34408;51.426;5.444;2023-07-22T14:45:56;8.52;;;2.25;;
48613;SDS011;34408;51.426;5.444;2023-07-22T14:48:24;3.13;;;1.70;;
48613;SDS011;34408;51.426;5.444;2023-07-22T14:50:52;6.00;;;2.15;;
48613;SDS011;34408;51.426;5.444;2023-07-22T14:53:20;6.13;;;2.00;;
48613;SDS011;34408;51.426;5.444;2023-07-22T14:55:48;5.63;;;2.17;;
48613;SDS011;34408;51.426;5.444;2023-07-22T14:58:18;4.68;;;1.65;;